createdAt,value
2023-05-01T00:00:42.631Z,28.72
2023-05-01T00:01:42.676Z,30.83
2023-05-01T00:02:42.731Z,27.97
2023-05-01T00:03:42.807Z,27.16
2023-05-01T00:04:42.673Z,26.99
2023-05-01T00:05:42.601Z,30.33
2023-05-01T00:06:42.615Z,25.50
2023-05-01T00:07:42.586Z,25.36
2023-05-01T00:08:42.560Z,28.33
2023-05-01T00:09:42.539Z,26.80
2023-05-01T00:10:42.544Z,30.83
2023-05-01T00:11:42.526Z,31.84
2023-05-01T00:12:42.516Z,28.34
2023-05-01T00:13:42.522Z,30.13
2023-05-01T00:14:42.493Z,30.84
2023-05-01T00:15:42.508Z,32.14
2023-05-01T00:16:42.576Z,31.21
2023-05-01T00:17:42.539Z,31.64
2023-05-01T00:18:42.493Z,28.80
2023-05-01T00:19:43.084Z,32.35
2023-05-01T00:20:42.456Z,28.89
2023-05-01T00:21:42.459Z,29.81
2023-05-01T00:22:42.484Z,29.80
2023-05-01T00:23:42.470Z,27.74
2023-05-01T00:24:42.502Z,28.61
2023-05-01T00:25:42.543Z,31.37
2023-05-01T00:26:42.620Z,26.27
2023-05-01T00:27:42.683Z,29.30
2023-05-01T00:28:42.742Z,31.97
2023-05-01T00:29:42.801Z,27.57
2023-05-01T00:30:42.849Z,29.24
2023-05-01T00:31:43.051Z,26.41
2023-05-01T00:32:43.026Z,27.38
2023-05-01T00:33:43.045Z,31.44
2023-05-01T00:34:43.117Z,25.54
2023-05-01T00:35:43.171Z,30.83
2023-05-01T00:36:43.254Z,28.60
2023-05-01T00:37:43.306Z,27.97
2023-05-01T00:38:43.340Z,26.88
2023-05-01T00:39:43.439Z,27.04
2023-05-01T00:40:43.476Z,25.01
2023-05-01T00:41:43.526Z,29.11
2023-05-01T00:42:43.590Z,25.69
2023-05-01T00:43:43.615Z,28.91
2023-05-01T00:44:43.683Z,27.80
2023-05-01T00:45:43.915Z,31.89
2023-05-01T00:46:43.828Z,31.08
2023-05-01T00:47:43.896Z,29.92
2023-05-01T00:48:43.988Z,27.84
2023-05-01T00:49:44.058Z,27.05
2023-05-01T00:50:44.097Z,28.27
2023-05-01T00:51:44.166Z,27.13
2023-05-01T00:52:44.211Z,27.59
2023-05-01T00:53:44.293Z,29.80
2023-05-01T00:54:44.380Z,26.91
2023-05-01T00:55:44.432Z,29.97
2023-05-01T00:56:44.462Z,29.35
2023-05-01T00:57:44.519Z,29.68
2023-05-01T00:58:44.596Z,26.45
2023-05-01T00:59:44.653Z,29.46
2023-05-01T01:00:44.749Z,31.38
2023-05-01T01:01:44.838Z,28.77
2023-05-01T01:02:44.878Z,29.37
2023-05-01T01:03:44.921Z,26.35
2023-05-01T01:04:45.021Z,25.90
2023-05-01T01:05:45.032Z,29.85
2023-05-01T01:06:45.151Z,28.28
2023-05-01T01:07:45.135Z,29.25
2023-05-01T01:08:45.175Z,30.71
2023-05-01T01:09:45.249Z,30.99
2023-05-01T01:10:45.304Z,29.51
2023-05-01T01:11:45.376Z,28.52
2023-05-01T01:12:45.427Z,32.19
2023-05-01T01:13:45.495Z,29.16
2023-05-01T01:14:45.534Z,28.91
2023-05-01T01:15:45.608Z,32.62
2023-05-01T01:16:45.732Z,27.06
2023-05-01T01:17:45.761Z,25.68
2023-05-01T01:18:45.794Z,30.56
2023-05-01T01:19:45.833Z,29.27
2023-05-01T01:20:45.883Z,30.11
2023-05-01T01:21:45.971Z,27.07
2023-05-01T01:22:46.030Z,32.50
2023-05-01T01:23:46.075Z,30.83
2023-05-01T01:24:46.142Z,28.21
2023-05-01T01:25:46.189Z,30.31
2023-05-01T01:26:46.282Z,28.91
2023-05-01T01:27:46.292Z,27.49
2023-05-01T01:28:46.376Z,28.89
2023-05-01T01:29:46.428Z,27.23
2023-05-01T01:30:46.534Z,28.48
2023-05-01T01:31:46.556Z,31.26
2023-05-01T01:32:46.643Z,29.74
2023-05-01T01:33:46.694Z,31.40
2023-05-01T01:34:46.779Z,31.79
2023-05-01T01:35:46.787Z,29.82
2023-05-01T01:36:46.863Z,31.18
2023-05-01T01:37:46.937Z,29.21
2023-05-01T01:38:46.973Z,30.21
2023-05-01T01:39:47.068Z,26.42
2023-05-01T01:40:47.103Z,27.96
2023-05-01T01:41:47.137Z,29.81
2023-05-01T01:42:47.161Z,29.09
2023-05-01T01:43:47.202Z,25.71
2023-05-01T01:44:47.261Z,29.71
2023-05-01T01:45:47.432Z,27.43
2023-05-01T01:46:47.491Z,28.63
2023-05-01T01:47:47.474Z,29.33
2023-05-01T01:48:47.436Z,29.08
2023-05-01T01:49:47.472Z,28.80
2023-05-01T01:50:47.476Z,30.10
2023-05-01T01:51:47.557Z,31.27
2023-05-01T01:52:47.536Z,26.90
2023-05-01T01:53:47.514Z,28.44
2023-05-01T01:54:47.566Z,28.79
2023-05-01T01:55:48.081Z,27.35
2023-05-01T01:56:47.599Z,29.45
2023-05-01T01:57:47.560Z,30.99
2023-05-01T01:58:47.596Z,27.30
2023-05-01T01:59:47.603Z,30.12
2023-05-01T02:00:47.611Z,31.26
2023-05-01T02:01:47.652Z,25.67
2023-05-01T02:02:47.711Z,29.83
2023-05-01T02:03:47.747Z,28.28
2023-05-01T02:04:47.625Z,28.57
2023-05-01T02:05:47.665Z,28.23
2023-05-01T02:06:47.709Z,26.65
2023-05-01T02:07:47.648Z,28.98
2023-05-01T02:08:47.673Z,27.68
2023-05-01T02:09:47.657Z,27.19
2023-05-01T02:10:47.669Z,25.42
2023-05-01T02:11:47.642Z,29.24
2023-05-01T02:12:47.670Z,29.40
2023-05-01T02:13:47.668Z,29.30
2023-05-01T02:14:47.618Z,26.45
2023-05-01T02:15:47.643Z,27.21
2023-05-01T02:16:47.631Z,29.71
2023-05-01T02:17:47.732Z,30.77
2023-05-01T02:18:47.641Z,28.91
2023-05-01T02:19:47.630Z,29.47
2023-05-01T02:20:47.631Z,28.70
2023-05-01T02:21:47.620Z,25.87
2023-05-01T02:22:47.647Z,29.20
2023-05-01T02:23:47.762Z,30.62
2023-05-01T02:24:47.670Z,30.49
2023-05-01T02:25:47.697Z,30.16
2023-05-01T02:26:47.671Z,28.85
2023-05-01T02:27:47.692Z,28.77
2023-05-01T02:28:47.748Z,26.47
2023-05-01T02:29:47.748Z,27.32
2023-05-01T02:30:47.752Z,29.39
2023-05-01T02:31:47.782Z,30.36
2023-05-01T02:32:47.825Z,28.33
2023-05-01T02:33:47.734Z,27.08
2023-05-01T02:34:47.749Z,29.18
2023-05-01T02:35:47.762Z,30.42
2023-05-01T02:36:47.783Z,32.00
2023-05-01T02:37:47.814Z,31.75
2023-05-01T02:38:47.802Z,29.99
2023-05-01T02:39:47.828Z,28.66
2023-05-01T02:40:47.870Z,30.59
2023-05-01T02:41:47.925Z,29.98
2023-05-01T02:42:47.920Z,28.52
2023-05-01T02:43:47.948Z,30.26
2023-05-01T02:44:47.962Z,32.29
2023-05-01T02:45:48.011Z,30.24
2023-05-01T02:46:47.967Z,27.65
2023-05-01T02:47:48.035Z,29.47
2023-05-01T02:48:48.042Z,29.96
2023-05-01T02:49:48.059Z,30.11
2023-05-01T02:50:48.049Z,29.10
2023-05-01T02:51:48.111Z,30.56
2023-05-01T02:52:48.146Z,29.24
2023-05-01T02:53:48.169Z,29.52
2023-05-01T02:54:48.193Z,29.39
2023-05-01T02:55:48.201Z,28.71
2023-05-01T02:56:48.227Z,28.89
2023-05-01T02:57:48.267Z,29.91
2023-05-01T02:58:48.272Z,28.50
2023-05-01T02:59:48.318Z,26.70
2023-05-01T03:00:48.346Z,29.12
2023-05-01T03:01:48.426Z,29.14
2023-05-01T03:02:48.382Z,27.98
2023-05-01T03:03:48.366Z,30.78
2023-05-01T03:04:48.356Z,27.60
2023-05-01T03:05:48.294Z,28.45
2023-05-01T03:06:48.324Z,27.84
2023-05-01T03:07:48.324Z,30.56
2023-05-01T03:08:48.329Z,29.36
2023-05-01T03:09:48.319Z,30.28
2023-05-01T03:10:48.282Z,28.21
2023-05-01T03:11:48.285Z,28.24
2023-05-01T03:12:48.272Z,28.60
2023-05-01T03:13:48.286Z,29.18
2023-05-01T03:14:48.269Z,28.78
2023-05-01T03:15:48.279Z,29.81
2023-05-01T03:16:48.298Z,28.48
2023-05-01T03:17:48.331Z,26.24
2023-05-01T03:18:48.281Z,28.13
2023-05-01T03:19:48.283Z,26.95
2023-05-01T03:20:48.281Z,29.67
2023-05-01T03:21:48.304Z,25.93
2023-05-01T03:22:48.267Z,26.90
2023-05-01T03:23:48.249Z,28.18
2023-05-01T03:24:48.264Z,29.01
2023-05-01T03:25:48.264Z,27.74
2023-05-01T03:26:48.292Z,31.75
2023-05-01T03:27:48.268Z,30.74
2023-05-01T03:28:48.238Z,28.15
2023-05-01T03:29:48.253Z,30.90
2023-05-01T03:30:48.245Z,25.59
2023-05-01T03:31:48.273Z,28.08
2023-05-01T03:32:48.276Z,29.93
2023-05-01T03:33:48.228Z,28.41
2023-05-01T03:34:48.241Z,29.63
2023-05-01T03:35:48.269Z,29.54
2023-05-01T03:36:48.307Z,28.69
2023-05-01T03:37:48.308Z,30.67
2023-05-01T03:38:48.343Z,29.59
2023-05-01T03:39:48.394Z,27.82
2023-05-01T03:40:48.398Z,28.27
2023-05-01T03:41:48.434Z,27.48
2023-05-01T03:42:48.467Z,30.06
2023-05-01T03:43:48.462Z,26.79
2023-05-01T03:44:48.510Z,28.92
2023-05-01T03:45:48.583Z,27.97
2023-05-01T03:46:48.572Z,26.42
2023-05-01T03:47:48.686Z,27.75
2023-05-01T03:48:48.660Z,28.97
2023-05-01T03:49:48.708Z,29.92
2023-05-01T03:50:48.737Z,30.57
2023-05-01T03:51:48.800Z,29.91
2023-05-01T03:52:48.839Z,29.26
2023-05-01T03:53:48.846Z,28.92
2023-05-01T03:54:48.904Z,28.62
2023-05-01T03:55:48.919Z,30.90
2023-05-01T03:56:49.055Z,31.84
2023-05-01T03:57:49.053Z,29.92
2023-05-01T03:58:49.000Z,28.99
2023-05-01T03:59:49.134Z,29.44
2023-05-01T04:00:49.104Z,30.08
2023-05-01T04:01:49.141Z,30.77
2023-05-01T04:02:49.301Z,28.96
2023-05-01T04:03:49.135Z,30.09
2023-05-01T04:04:49.167Z,29.61
2023-05-01T04:05:49.169Z,29.22
2023-05-01T04:06:49.310Z,27.95
2023-05-01T04:07:49.157Z,26.33
2023-05-01T04:08:49.168Z,29.18
2023-05-01T04:09:49.167Z,29.26
2023-05-01T04:10:49.238Z,30.04
2023-05-01T04:11:49.200Z,26.91
2023-05-01T04:12:49.226Z,31.10
2023-05-01T04:13:49.208Z,25.76
2023-05-01T04:14:49.264Z,28.46
2023-05-01T04:15:49.334Z,29.26
2023-05-01T04:16:49.304Z,30.05
2023-05-01T04:17:49.262Z,26.86
2023-05-01T04:18:49.280Z,28.21
2023-05-01T04:19:49.186Z,29.07
2023-05-01T04:20:49.281Z,28.36
2023-05-01T04:21:49.235Z,26.52
2023-05-01T04:22:49.253Z,27.99
2023-05-01T04:23:49.201Z,26.86
2023-05-01T04:24:49.180Z,26.86
2023-05-01T04:25:49.225Z,25.68
2023-05-01T04:26:49.189Z,29.13
2023-05-01T04:27:49.227Z,30.42
2023-05-01T04:28:49.167Z,25.66
2023-05-01T04:29:49.128Z,28.24
2023-05-01T04:30:49.179Z,29.31
2023-05-01T04:31:49.167Z,26.50
2023-05-01T04:32:49.207Z,28.86
2023-05-01T04:33:49.115Z,29.18
2023-05-01T04:34:49.130Z,33.00
2023-05-01T04:35:49.147Z,28.76
2023-05-01T04:36:49.128Z,27.78
2023-05-01T04:37:49.121Z,29.30
2023-05-01T04:38:49.083Z,29.04
2023-05-01T04:39:49.092Z,29.31
2023-05-01T04:40:49.105Z,28.89
2023-05-01T04:41:49.102Z,27.84
2023-05-01T04:42:49.125Z,30.70
2023-05-01T04:43:49.138Z,29.20
2023-05-01T04:44:49.127Z,29.92
2023-05-01T04:45:49.114Z,29.31
2023-05-01T04:46:49.168Z,28.59
2023-05-01T04:47:49.128Z,29.09
2023-05-01T04:48:49.097Z,28.48
2023-05-01T04:49:49.127Z,27.47
2023-05-01T04:50:49.120Z,27.97
2023-05-01T04:51:49.149Z,26.81
2023-05-01T04:52:49.113Z,26.81
2023-05-01T04:53:49.119Z,27.43
2023-05-01T04:54:49.121Z,29.10
2023-05-01T04:55:49.129Z,30.70
2023-05-01T04:56:49.120Z,29.38
2023-05-01T04:57:49.139Z,31.97
2023-05-01T04:58:49.117Z,28.12
2023-05-01T04:59:49.122Z,27.51
2023-05-01T05:00:49.129Z,29.92
2023-05-01T05:01:49.184Z,31.36
2023-05-01T05:02:49.203Z,28.16
2023-05-01T05:03:50.330Z,30.21
2023-05-01T05:04:49.156Z,30.86
2023-05-01T05:05:49.169Z,28.09
2023-05-01T05:06:49.306Z,29.21
2023-05-01T05:07:49.179Z,27.62
2023-05-01T05:08:49.183Z,30.33
2023-05-01T05:09:49.190Z,26.74
2023-05-01T05:10:49.167Z,28.05
2023-05-01T05:11:49.214Z,28.01
2023-05-01T05:12:49.195Z,30.37
2023-05-01T05:13:49.208Z,28.00
2023-05-01T05:14:49.221Z,30.61
2023-05-01T05:15:49.196Z,30.54
2023-05-01T05:16:49.372Z,29.79
2023-05-01T05:17:49.260Z,30.06
2023-05-01T05:18:49.206Z,28.19
2023-05-01T05:19:49.191Z,28.53
2023-05-01T05:20:49.238Z,29.88
2023-05-01T05:21:49.252Z,28.11
2023-05-01T05:22:49.240Z,30.27
2023-05-01T05:23:49.231Z,29.67
2023-05-01T05:24:49.227Z,28.19
2023-05-01T05:25:49.238Z,27.91
2023-05-01T05:26:49.246Z,30.50
2023-05-01T05:27:51.213Z,30.62
2023-05-01T05:28:49.211Z,30.95
2023-05-01T05:29:49.255Z,30.34
2023-05-01T05:30:49.237Z,29.46
2023-05-01T05:31:49.319Z,31.21
2023-05-01T05:32:49.311Z,31.89
2023-05-01T05:33:49.313Z,30.75
2023-05-01T05:34:49.315Z,29.35
2023-05-01T05:35:49.296Z,27.94
2023-05-01T05:36:49.304Z,27.24
2023-05-01T05:37:49.303Z,27.45
2023-05-01T05:38:49.313Z,28.50
2023-05-01T05:39:49.302Z,28.72
2023-05-01T05:40:49.343Z,31.00
2023-05-01T05:41:49.373Z,29.14
2023-05-01T05:42:49.330Z,31.40
2023-05-01T05:43:49.336Z,30.97
2023-05-01T05:44:49.325Z,29.93
2023-05-01T05:45:49.497Z,29.63
2023-05-01T05:46:49.391Z,28.15
2023-05-01T05:47:49.404Z,30.12
2023-05-01T05:48:49.380Z,29.24
2023-05-01T05:49:49.372Z,27.51
2023-05-01T05:50:49.376Z,29.00
2023-05-01T05:51:49.385Z,29.65
2023-05-01T05:52:49.393Z,31.09
2023-05-01T05:53:49.379Z,31.72
2023-05-01T05:54:49.374Z,29.46
2023-05-01T05:55:49.398Z,31.17
2023-05-01T05:56:49.408Z,32.32
2023-05-01T05:57:49.385Z,33.71
2023-05-01T05:58:49.446Z,32.00
2023-05-01T05:59:49.411Z,31.46
2023-05-01T06:00:49.447Z,31.56
2023-05-01T06:01:49.454Z,32.81
2023-05-01T06:02:49.478Z,31.70
2023-05-01T06:03:49.544Z,31.50
2023-05-01T06:04:49.461Z,31.30
2023-05-01T06:05:49.553Z,31.70
2023-05-01T06:06:49.551Z,31.41
2023-05-01T06:07:49.492Z,30.31
2023-05-01T06:08:49.511Z,31.45
2023-05-01T06:09:49.526Z,32.90
2023-05-01T06:10:49.538Z,30.86
2023-05-01T06:11:49.542Z,32.58
2023-05-01T06:12:53.749Z,33.50
2023-05-01T06:13:50.562Z,33.67
2023-05-01T06:14:49.548Z,34.17
2023-05-01T06:15:49.568Z,34.39
2023-05-01T06:16:49.521Z,33.92
2023-05-01T06:17:49.555Z,34.31
2023-05-01T06:18:49.545Z,32.48
2023-05-01T06:19:49.508Z,36.70
2023-05-01T06:20:49.481Z,35.82
2023-05-01T06:21:49.487Z,35.66
2023-05-01T06:22:49.493Z,31.55
2023-05-01T06:23:49.500Z,32.83
2023-05-01T06:24:49.529Z,36.88
2023-05-01T06:25:49.535Z,36.52
2023-05-01T06:26:49.660Z,35.09
2023-05-01T06:27:49.660Z,38.86
2023-05-01T06:28:51.259Z,37.64
2023-05-01T06:29:49.712Z,38.71
2023-05-01T06:30:49.765Z,39.06
2023-05-01T06:31:49.886Z,36.45
2023-05-01T06:32:49.887Z,35.42
2023-05-01T06:33:49.821Z,43.09
2023-05-01T06:34:49.940Z,41.96
2023-05-01T06:35:49.919Z,39.75
2023-05-01T06:36:49.979Z,40.36
2023-05-01T06:37:49.982Z,37.26
2023-05-01T06:38:50.040Z,43.32
2023-05-01T06:39:50.072Z,42.17
2023-05-01T06:40:50.112Z,45.09
2023-05-01T06:41:50.196Z,41.15
2023-05-01T06:42:50.212Z,46.40
2023-05-01T06:43:50.250Z,47.62
2023-05-01T06:44:50.286Z,47.92
2023-05-01T06:45:50.378Z,46.13
2023-05-01T06:46:50.630Z,45.62
2023-05-01T06:47:50.494Z,43.37
2023-05-01T06:48:50.506Z,46.53
2023-05-01T06:49:50.541Z,42.00
2023-05-01T06:50:50.565Z,42.00
2023-05-01T06:51:50.608Z,40.08
2023-05-01T06:52:50.642Z,45.25
2023-05-01T06:53:50.729Z,44.39
2023-05-01T06:54:50.785Z,41.33
2023-05-01T06:55:50.836Z,36.80
2023-05-01T06:56:50.906Z,35.36
2023-05-01T06:57:50.955Z,35.53
2023-05-01T06:58:51.022Z,35.08
2023-05-01T06:59:51.060Z,35.71
2023-05-01T07:00:51.153Z,40.37
2023-05-01T07:01:51.229Z,36.01
2023-05-01T07:02:51.311Z,43.42
2023-05-01T07:03:51.341Z,41.16
2023-05-01T07:04:51.365Z,40.23
2023-05-01T07:05:51.487Z,36.83
2023-05-01T07:06:51.566Z,37.31
2023-05-01T07:08:00.748Z,37.30
2023-05-01T07:08:52.567Z,37.46
2023-05-01T07:09:51.533Z,37.37
2023-05-01T07:10:51.577Z,37.35
2023-05-01T07:11:51.552Z,37.43
2023-05-01T07:12:51.547Z,35.85
2023-05-01T07:13:51.521Z,34.39
2023-05-01T07:14:51.518Z,36.22
2023-05-01T07:15:53.804Z,32.62
2023-05-01T07:16:51.571Z,35.70
2023-05-01T07:17:51.542Z,36.38
2023-05-01T07:18:51.476Z,32.97
2023-05-01T07:19:51.478Z,32.08
2023-05-01T07:20:51.472Z,34.06
2023-05-01T07:21:51.471Z,33.21
2023-05-01T07:22:51.470Z,34.69
2023-05-01T07:23:51.494Z,32.25
2023-05-01T07:24:51.468Z,30.83
2023-05-01T07:25:51.457Z,35.00
2023-05-01T07:26:51.470Z,32.88
2023-05-01T07:27:51.518Z,30.46
2023-05-01T07:28:51.435Z,34.50
2023-05-01T07:29:51.409Z,32.49
2023-05-01T07:30:51.425Z,31.88
2023-05-01T07:31:51.477Z,30.91
2023-05-01T07:32:51.454Z,32.86
2023-05-01T07:33:52.956Z,31.01
2023-05-01T07:34:51.406Z,35.49
2023-05-01T07:35:51.417Z,35.19
2023-05-01T07:36:51.383Z,32.82
2023-05-01T07:37:51.383Z,36.00
2023-05-01T07:38:51.359Z,34.47
2023-05-01T07:39:51.375Z,33.59
2023-05-01T07:40:51.377Z,31.54
2023-05-01T07:41:51.325Z,32.84
2023-05-01T07:42:53.873Z,33.80
2023-05-01T07:43:51.312Z,33.98
2023-05-01T07:44:51.318Z,34.05
2023-05-01T07:45:51.346Z,34.71
2023-05-01T07:46:51.333Z,35.36
2023-05-01T07:47:51.314Z,32.95
2023-05-01T07:48:51.310Z,29.83
2023-05-01T07:49:51.275Z,29.38
2023-05-01T07:50:51.287Z,31.96
2023-05-01T07:51:51.277Z,31.34
2023-05-01T07:52:51.360Z,32.69
2023-05-01T07:53:51.266Z,31.21
2023-05-01T07:54:51.241Z,30.19
2023-05-01T07:55:51.239Z,31.18
2023-05-01T07:56:51.244Z,32.50
2023-05-01T07:57:51.243Z,32.55
2023-05-01T07:58:51.232Z,28.90
2023-05-01T07:59:51.210Z,32.28
2023-05-01T08:00:51.194Z,30.60
2023-05-01T08:01:51.188Z,31.26
2023-05-01T08:02:51.284Z,32.24
2023-05-01T08:03:51.349Z,29.80
2023-05-01T08:04:51.191Z,32.19
2023-05-01T08:05:51.172Z,29.84
2023-05-01T08:06:51.302Z,29.80
2023-05-01T08:07:51.165Z,32.03
2023-05-01T08:08:51.152Z,30.22
2023-05-01T08:09:51.140Z,30.30
2023-05-01T08:10:51.155Z,32.80
2023-05-01T08:11:51.119Z,36.38
2023-05-01T08:12:51.121Z,32.92
2023-05-01T08:13:51.099Z,32.03
2023-05-01T08:14:51.079Z,29.75
2023-05-01T08:15:51.115Z,29.36
2023-05-01T08:16:51.114Z,27.09
2023-05-01T08:17:51.113Z,31.20
2023-05-01T08:18:51.054Z,31.89
2023-05-01T08:19:51.135Z,30.91
2023-05-01T08:20:51.165Z,34.62
2023-05-01T08:21:51.278Z,31.16
2023-05-01T08:22:51.304Z,31.01
2023-05-01T08:23:51.341Z,31.72
2023-05-01T08:24:51.388Z,28.83
2023-05-01T08:25:51.435Z,30.34
2023-05-01T08:26:51.500Z,28.72
2023-05-01T08:27:51.581Z,27.66
2023-05-01T08:28:51.628Z,27.84
2023-05-01T08:29:51.645Z,26.61
2023-05-01T08:30:51.745Z,27.94
2023-05-01T08:31:51.901Z,27.43
2023-05-01T08:32:51.866Z,25.88
2023-05-01T08:33:51.886Z,29.13
2023-05-01T08:34:51.880Z,25.25
2023-05-01T08:35:51.946Z,26.03
2023-05-01T08:36:52.022Z,26.52
2023-05-01T08:37:52.049Z,27.79
2023-05-01T08:38:52.115Z,28.21
2023-05-01T08:39:52.132Z,27.39
2023-05-01T08:40:52.190Z,27.21
2023-05-01T08:41:52.243Z,27.96
2023-05-01T08:42:52.289Z,25.68
2023-05-01T08:43:52.329Z,28.05
2023-05-01T08:44:52.384Z,27.95
2023-05-01T08:45:52.461Z,29.06
2023-05-01T08:46:52.548Z,25.01
2023-05-01T08:47:52.562Z,27.21
2023-05-01T08:48:52.583Z,25.94
2023-05-01T08:49:52.637Z,25.57
2023-05-01T08:50:52.697Z,27.45
2023-05-01T08:51:52.726Z,28.73
2023-05-01T08:52:52.796Z,27.38
2023-05-01T08:53:52.818Z,29.00
2023-05-01T08:54:52.870Z,28.35
2023-05-01T08:55:52.867Z,28.65
2023-05-01T08:56:52.938Z,29.09
2023-05-01T08:57:52.980Z,29.60
2023-05-01T08:58:53.016Z,29.33
2023-05-01T08:59:53.116Z,27.47
2023-05-01T09:00:53.118Z,30.83
2023-05-01T09:01:53.193Z,25.66
2023-05-01T09:02:53.231Z,27.86
2023-05-01T09:03:53.265Z,28.79
2023-05-01T09:04:53.260Z,26.66
2023-05-01T09:05:53.309Z,30.34
2023-05-01T09:06:53.417Z,28.76
2023-05-01T09:07:53.367Z,28.71
2023-05-01T09:08:53.406Z,32.51
2023-05-01T09:09:53.491Z,30.28
2023-05-01T09:10:53.425Z,30.17
2023-05-01T09:11:53.484Z,30.19
2023-05-01T09:12:53.527Z,30.14
2023-05-01T09:13:53.568Z,28.62
2023-05-01T09:14:53.581Z,28.06
2023-05-01T09:15:53.675Z,28.53
2023-05-01T09:16:53.749Z,28.88
2023-05-01T09:17:53.814Z,29.20
2023-05-01T09:18:53.733Z,28.11
2023-05-01T09:19:53.809Z,27.96
2023-05-01T09:20:53.798Z,30.17
2023-05-01T09:21:53.834Z,28.67
2023-05-01T09:22:53.865Z,29.58
2023-05-01T09:23:53.900Z,27.67
2023-05-01T09:24:53.957Z,28.43
2023-05-01T09:25:53.974Z,27.11
2023-05-01T09:26:54.032Z,30.80
2023-05-01T09:27:54.070Z,29.42
2023-05-01T09:28:54.087Z,29.70
2023-05-01T09:29:54.161Z,31.53
2023-05-01T09:30:54.168Z,30.30
2023-05-01T09:31:54.270Z,31.96
2023-05-01T09:32:54.244Z,29.03
2023-05-01T09:33:54.301Z,29.77
2023-05-01T09:34:54.307Z,28.81
2023-05-01T09:35:54.392Z,26.69
2023-05-01T09:36:54.372Z,29.00
2023-05-01T09:37:54.418Z,27.27
2023-05-01T09:38:54.444Z,28.93
2023-05-01T09:39:54.671Z,27.53
2023-05-01T09:40:54.481Z,28.25
2023-05-01T09:41:54.525Z,28.74
2023-05-01T09:42:54.553Z,27.92
2023-05-01T09:43:54.577Z,30.95
2023-05-01T09:44:54.633Z,29.60
2023-05-01T09:45:54.734Z,28.16
2023-05-01T09:46:54.669Z,27.17
2023-05-01T09:47:54.768Z,30.27
2023-05-01T09:48:54.696Z,31.16
2023-05-01T09:49:54.878Z,29.36
2023-05-01T09:50:54.797Z,31.07
2023-05-01T09:51:54.816Z,30.17
2023-05-01T09:52:54.831Z,28.44
2023-05-01T09:53:54.844Z,30.48
2023-05-01T09:54:54.896Z,29.89
2023-05-01T09:55:54.907Z,29.93
2023-05-01T09:56:54.940Z,27.75
2023-05-01T09:57:54.982Z,28.87
2023-05-01T09:58:55.027Z,29.71
2023-05-01T09:59:55.208Z,28.46
2023-05-01T10:00:55.061Z,29.21
2023-05-01T10:01:55.129Z,30.41
2023-05-01T10:02:55.288Z,29.76
2023-05-01T10:03:55.315Z,31.03
2023-05-01T10:04:55.160Z,30.74
2023-05-01T10:05:55.176Z,31.03
2023-05-01T10:06:55.390Z,28.91
2023-05-01T10:07:55.275Z,30.56
2023-05-01T10:08:55.278Z,31.94
2023-05-01T10:09:55.488Z,31.88
2023-05-01T10:10:55.344Z,31.37
2023-05-01T10:11:55.393Z,29.92
2023-05-01T10:12:55.459Z,29.23
2023-05-01T10:13:55.452Z,29.97
2023-05-01T10:14:55.428Z,30.33
2023-05-01T10:15:55.480Z,32.30
2023-05-01T10:16:55.566Z,31.90
2023-05-01T10:17:55.658Z,31.03
2023-05-01T10:18:55.574Z,32.01
2023-05-01T10:19:55.859Z,29.84
2023-05-01T10:20:55.648Z,31.96
2023-05-01T10:21:55.611Z,29.73
2023-05-01T10:22:55.697Z,29.12
2023-05-01T10:23:55.704Z,32.85
2023-05-01T10:24:55.729Z,30.67
2023-05-01T10:25:55.777Z,33.70
2023-05-01T10:26:55.787Z,32.43
2023-05-01T10:27:55.830Z,31.55
2023-05-01T10:28:55.826Z,31.10
2023-05-01T10:29:55.912Z,31.57
2023-05-01T10:30:55.939Z,32.48
2023-05-01T10:31:55.994Z,32.89
2023-05-01T10:32:55.924Z,32.57
2023-05-01T10:33:55.981Z,33.11
2023-05-01T10:34:56.311Z,33.48
2023-05-01T10:35:55.994Z,31.77
2023-05-01T10:36:56.025Z,32.81
2023-05-01T10:37:56.036Z,33.46
2023-05-01T10:38:56.116Z,32.83
2023-05-01T10:39:56.116Z,35.71
2023-05-01T10:40:56.143Z,30.75
2023-05-01T10:41:56.157Z,29.69
2023-05-01T10:42:56.159Z,32.23
2023-05-01T10:43:56.161Z,34.99
2023-05-01T10:44:56.365Z,34.18
2023-05-01T10:45:56.255Z,29.35
2023-05-01T10:46:56.296Z,32.18
2023-05-01T10:47:56.282Z,32.11
2023-05-01T10:48:56.356Z,32.30
2023-05-01T10:49:56.286Z,33.38
2023-05-01T10:50:56.305Z,32.06
2023-05-01T10:51:56.337Z,34.22
2023-05-01T10:52:56.342Z,31.67
2023-05-01T10:53:56.337Z,30.97
2023-05-01T10:54:56.501Z,31.45
2023-05-01T10:55:56.391Z,31.11
2023-05-01T10:56:56.420Z,30.86
2023-05-01T10:57:56.440Z,31.33
2023-05-01T10:58:56.464Z,31.26
2023-05-01T10:59:56.472Z,30.80
2023-05-01T11:00:56.449Z,31.53
2023-05-01T11:01:56.524Z,31.71
2023-05-01T11:02:56.523Z,31.47
2023-05-01T11:03:56.517Z,31.84
2023-05-01T11:04:56.849Z,33.53
2023-05-01T11:05:56.558Z,31.72
2023-05-01T11:06:56.658Z,29.01
2023-05-01T11:07:56.561Z,33.00
2023-05-01T11:08:56.586Z,30.51
2023-05-01T11:09:56.584Z,29.90
2023-05-01T11:10:56.568Z,26.69
2023-05-01T11:11:56.614Z,28.49
2023-05-01T11:12:56.657Z,30.33
2023-05-01T11:13:56.617Z,29.07
2023-05-01T11:14:56.924Z,30.88
2023-05-01T11:15:56.717Z,31.62
2023-05-01T11:16:56.657Z,32.53
2023-05-01T11:17:56.640Z,31.45
2023-05-01T11:18:56.694Z,29.98
2023-05-01T11:19:56.700Z,29.39
2023-05-01T11:20:56.707Z,28.67
2023-05-01T11:21:56.700Z,28.71
2023-05-01T11:22:56.709Z,31.39
2023-05-01T11:23:56.793Z,29.41
2023-05-01T11:24:57.282Z,28.42
2023-05-01T11:25:56.742Z,30.75
2023-05-01T11:26:56.751Z,29.86
2023-05-01T11:27:56.984Z,28.93
2023-05-01T11:28:56.785Z,30.83
2023-05-01T11:29:56.790Z,30.14
2023-05-01T11:30:56.789Z,30.66
2023-05-01T11:31:56.835Z,31.39
2023-05-01T11:32:56.864Z,32.13
2023-05-01T11:33:56.806Z,30.00
2023-05-01T11:34:57.280Z,29.22
2023-05-01T11:35:56.802Z,30.65
2023-05-01T11:36:56.833Z,29.08
2023-05-01T11:37:56.892Z,31.24
2023-05-01T11:38:56.852Z,31.40
2023-05-01T11:39:56.853Z,32.67
2023-05-01T11:40:56.847Z,32.34
2023-05-01T11:41:56.941Z,30.22
2023-05-01T11:42:56.833Z,34.11
2023-05-01T11:43:56.881Z,32.25
2023-05-01T11:44:57.099Z,30.27
2023-05-01T11:45:56.892Z,32.64
2023-05-01T11:46:56.879Z,33.63
2023-05-01T11:47:56.925Z,32.70
2023-05-01T11:48:56.915Z,33.76
2023-05-01T11:49:56.886Z,33.06
2023-05-01T11:50:56.893Z,31.48
2023-05-01T11:51:56.896Z,34.73
2023-05-01T11:52:56.938Z,33.85
2023-05-01T11:53:56.920Z,32.01
2023-05-01T11:54:56.924Z,32.61
2023-05-01T11:55:56.946Z,33.54
2023-05-01T11:56:56.926Z,34.60
2023-05-01T11:57:56.941Z,31.68
2023-05-01T11:58:56.932Z,33.83
2023-05-01T11:59:56.932Z,33.76
2023-05-01T12:00:56.948Z,34.93
2023-05-01T12:01:57.006Z,34.69
2023-05-01T12:02:57.042Z,36.26
2023-05-01T12:03:56.984Z,35.07
2023-05-01T12:04:57.364Z,33.95
2023-05-01T12:05:57.109Z,35.88
2023-05-01T12:06:56.964Z,34.52
2023-05-01T12:07:56.985Z,38.12
2023-05-01T12:08:56.969Z,33.56
2023-05-01T12:09:56.999Z,34.60
2023-05-01T12:10:57.045Z,34.00
2023-05-01T12:11:57.025Z,34.94
2023-05-01T12:12:56.980Z,33.58
2023-05-01T12:13:56.986Z,33.63
2023-05-01T12:14:57.161Z,35.09
2023-05-01T12:15:57.019Z,36.19
2023-05-01T12:16:57.015Z,34.88
2023-05-01T12:17:57.167Z,36.13
2023-05-01T12:18:57.022Z,34.86
2023-05-01T12:19:57.030Z,34.63
2023-05-01T12:20:57.012Z,38.40
2023-05-01T12:21:57.050Z,35.93
2023-05-01T12:22:57.043Z,37.91
2023-05-01T12:23:57.044Z,40.03
2023-05-01T12:24:57.250Z,36.32
2023-05-01T12:25:57.035Z,36.73
2023-05-01T12:26:57.044Z,34.17
2023-05-01T12:27:57.095Z,37.21
2023-05-01T12:28:57.072Z,35.42
2023-05-01T12:29:57.026Z,38.37
2023-05-01T12:30:57.870Z,35.66
2023-05-01T12:31:57.255Z,35.39
2023-05-01T12:32:57.054Z,34.51
2023-05-01T12:33:57.033Z,35.88
2023-05-01T12:34:57.290Z,37.92
2023-05-01T12:35:56.995Z,38.34
2023-05-01T12:36:56.985Z,36.84
2023-05-01T12:37:56.997Z,35.27
2023-05-01T12:38:57.021Z,39.76
2023-05-01T12:39:57.016Z,39.79
2023-05-01T12:40:57.023Z,38.21
2023-05-01T12:41:57.027Z,39.20
2023-05-01T12:42:57.050Z,38.67
2023-05-01T12:43:57.094Z,38.14
2023-05-01T12:44:57.164Z,39.55
2023-05-01T12:45:57.074Z,38.39
2023-05-01T12:46:57.191Z,39.76
2023-05-01T12:47:57.115Z,37.95
2023-05-01T12:48:57.114Z,38.70
2023-05-01T12:49:57.262Z,37.87
2023-05-01T12:50:57.105Z,39.80
2023-05-01T12:51:57.204Z,38.94
2023-05-01T12:52:57.175Z,40.70